createdAt,value
2022-08-29T00:01:05.642Z,14.55
2022-08-29T00:06:11.433Z,14.51
2022-08-29T00:11:18.990Z,14.47
2022-08-29T00:16:23.950Z,14.43
2022-08-29T00:21:28.708Z,14.37
2022-08-29T00:26:35.895Z,14.31
2022-08-29T00:31:40.507Z,14.23
2022-08-29T00:36:49.124Z,14.13
2022-08-29T00:41:56.557Z,14.04
2022-08-29T00:47:08.212Z,13.97
2022-08-29T00:52:16.758Z,13.89
2022-08-29T00:57:26.350Z,13.82
2022-08-29T01:02:31.178Z,13.75
2022-08-29T01:07:35.959Z,13.70
2022-08-29T01:12:45.362Z,13.65
2022-08-29T01:17:50.160Z,13.55
2022-08-29T01:23:05.064Z,13.53
2022-08-29T01:28:17.355Z,13.54
2022-08-29T01:33:21.857Z,13.54
2022-08-29T01:38:30.322Z,13.49
2022-08-29T01:43:42.731Z,13.36
2022-08-29T01:48:48.578Z,13.26
2022-08-29T01:53:54.169Z,13.19
2022-08-29T01:59:03.109Z,13.10
2022-08-29T02:04:09.203Z,12.98
2022-08-29T02:09:13.818Z,12.90
2022-08-29T02:14:21.142Z,12.84
2022-08-29T02:19:25.775Z,12.76
2022-08-29T02:24:30.437Z,12.67
2022-08-29T02:29:38.392Z,12.58
2022-08-29T02:34:44.830Z,12.51
2022-08-29T02:39:52.512Z,12.43
2022-08-29T02:44:59.727Z,12.36
2022-08-29T02:50:06.603Z,12.29
2022-08-29T02:55:15.358Z,12.19
2022-08-29T03:00:25.498Z,12.11
2022-08-29T03:05:34.983Z,11.99
2022-08-29T03:10:40.923Z,11.94
2022-08-29T03:15:48.085Z,11.89
2022-08-29T03:20:53.465Z,11.82
2022-08-29T03:25:58.322Z,11.76
2022-08-29T03:31:05.564Z,11.70
2022-08-29T03:36:14.123Z,11.66
2022-08-29T03:41:23.378Z,11.61
2022-08-29T03:46:31.068Z,11.55
2022-08-29T03:51:36.174Z,11.48
2022-08-29T03:56:41.203Z,11.44
2022-08-29T04:01:50.340Z,11.41
2022-08-29T04:06:54.858Z,11.37
2022-08-29T04:11:59.467Z,11.32
2022-08-29T04:17:07.371Z,11.28
2022-08-29T04:22:13.826Z,11.19
2022-08-29T04:27:18.337Z,11.14
2022-08-29T04:32:25.820Z,11.13
2022-08-29T04:37:31.310Z,11.10
2022-08-29T04:42:38.691Z,11.10
2022-08-29T04:47:46.848Z,11.08
2022-08-29T04:52:52.430Z,11.08
2022-08-29T04:57:58.339Z,11.07
2022-08-29T05:03:07.977Z,11.06
2022-08-29T05:08:12.653Z,11.06
2022-08-29T05:13:17.391Z,11.07
2022-08-29T05:18:24.468Z,11.09
2022-08-29T05:23:28.934Z,11.12
2022-08-29T05:28:35.696Z,11.17
2022-08-29T05:33:43.226Z,11.23
2022-08-29T05:38:47.795Z,11.29
2022-08-29T05:43:54.380Z,11.35
2022-08-29T05:49:01.441Z,11.43
2022-08-29T05:54:06.221Z,11.49
2022-08-29T05:59:12.631Z,11.59
2022-08-29T06:04:19.852Z,11.68
2022-08-29T06:09:24.492Z,11.77
2022-08-29T06:14:29.538Z,11.90
2022-08-29T06:19:37.405Z,12.04
2022-08-29T06:24:44.453Z,12.17
2022-08-29T06:29:49.335Z,12.31
2022-08-29T06:34:56.543Z,12.45
2022-08-29T06:40:01.098Z,12.62
2022-08-29T06:45:05.950Z,12.78
2022-08-29T06:50:13.226Z,12.97
2022-08-29T06:55:17.727Z,13.13
2022-08-29T07:00:28.836Z,13.30
2022-08-29T07:05:36.136Z,13.46
2022-08-29T07:10:40.690Z,13.65
2022-08-29T07:15:45.315Z,13.77
2022-08-29T07:20:54.587Z,13.96
2022-08-29T07:26:09.530Z,14.13
2022-08-29T07:31:14.098Z,14.29
2022-08-29T07:36:21.429Z,14.40
2022-08-29T07:41:26.623Z,14.56
2022-08-29T07:46:31.719Z,14.76
2022-08-29T07:51:38.966Z,14.93
2022-08-29T07:56:51.481Z,15.07
2022-08-29T08:01:56.021Z,15.25
2022-08-29T08:07:03.144Z,15.39
2022-08-29T08:12:09.786Z,15.55
2022-08-29T08:17:14.324Z,15.77
2022-08-29T08:22:21.601Z,15.97
2022-08-29T08:27:26.108Z,16.20
2022-08-29T08:32:32.556Z,16.33
2022-08-29T08:37:40.271Z,16.50
2022-08-29T08:42:47.297Z,16.66
2022-08-29T08:47:54.544Z,16.84
2022-08-29T08:53:08.683Z,17.07
2022-08-29T08:58:27.168Z,17.29
2022-08-29T09:04:13.623Z,17.43
2022-08-29T09:09:32.978Z,17.54
2022-08-29T09:14:50.870Z,17.65
2022-08-29T09:19:55.830Z,17.81
2022-08-29T09:25:05.355Z,17.94
2022-08-29T09:30:14.095Z,18.14
2022-08-29T09:35:24.547Z,18.18
2022-08-29T09:40:49.082Z,18.31
2022-08-29T09:46:19.239Z,18.48
2022-08-29T09:51:28.503Z,18.57
2022-08-29T09:56:38.113Z,18.74
2022-08-29T10:01:43.045Z,18.69
2022-08-29T10:06:52.572Z,18.82
2022-08-29T10:12:03.667Z,18.90
2022-08-29T10:17:26.154Z,19.09
2022-08-29T10:22:38.844Z,19.16
2022-08-29T10:27:51.752Z,19.26
2022-08-29T10:33:11.356Z,19.39
2022-08-29T10:38:25.165Z,19.49
2022-08-29T10:43:47.135Z,19.63
2022-08-29T10:49:00.642Z,19.71
2022-08-29T10:54:14.574Z,19.90
2022-08-29T10:59:31.735Z,20.04
2022-08-29T11:04:40.807Z,20.17
2022-08-29T11:09:50.501Z,20.18
2022-08-29T11:15:03.302Z,20.27
2022-08-29T11:20:12.363Z,20.29
2022-08-29T11:25:18.474Z,20.42
2022-08-29T11:30:35.221Z,20.51
2022-08-29T11:35:55.467Z,20.67
2022-08-29T11:41:31.796Z,20.67
2022-08-29T11:46:43.612Z,21.01
2022-08-29T11:51:52.025Z,21.17
2022-08-29T11:57:34.253Z,21.35
2022-08-29T12:02:48.817Z,21.28
2022-08-29T12:08:02.850Z,21.24
2022-08-29T12:13:10.929Z,21.19
2022-08-29T12:18:52.291Z,21.36
2022-08-29T12:23:56.733Z,21.52
2022-08-29T12:29:10.157Z,21.62
2022-08-29T12:34:35.336Z,21.67
2022-08-29T12:39:57.247Z,21.88
2022-08-29T12:45:03.866Z,22.32
2022-08-29T12:50:20.681Z,22.27
2022-08-29T12:55:28.999Z,22.68
2022-08-29T13:00:35.787Z,22.83
2022-08-29T13:05:43.878Z,22.88
2022-08-29T13:10:57.452Z,22.78
2022-08-29T13:16:05.057Z,22.85
2022-08-29T13:21:16.390Z,22.87
2022-08-29T13:26:24.648Z,22.96
2022-08-29T13:31:32.483Z,23.26
2022-08-29T13:36:47.290Z,23.34
2022-08-29T13:42:13.304Z,23.50
2022-08-29T13:47:20.751Z,23.63
2022-08-29T13:52:31.696Z,23.95
2022-08-29T13:57:37.094Z,24.12
2022-08-29T14:02:45.163Z,24.62
2022-08-29T14:07:52.611Z,24.64
2022-08-29T14:12:57.272Z,24.61
2022-08-29T14:18:02.956Z,24.93
2022-08-29T14:23:15.178Z,25.65
2022-08-29T14:28:20.333Z,25.66
2022-08-29T14:33:25.691Z,25.89
2022-08-29T14:38:33.151Z,25.84
2022-08-29T14:43:39.893Z,25.92
2022-08-29T14:48:45.128Z,26.44
2022-08-29T14:53:54.978Z,26.26
2022-08-29T14:58:59.835Z,26.33
2022-08-29T15:04:04.856Z,26.43
2022-08-29T15:09:12.016Z,26.15
2022-08-29T15:14:16.598Z,25.68
2022-08-29T15:24:50.266Z,25.88
2022-08-29T15:29:55.055Z,25.90
2022-08-29T15:34:59.982Z,25.63
2022-08-29T15:40:12.424Z,25.72
2022-08-29T15:45:18.072Z,25.74
2022-08-29T15:50:27.723Z,25.82
2022-08-29T15:55:35.017Z,25.67
2022-08-29T16:00:40.651Z,25.69
2022-08-29T16:05:45.336Z,25.65
2022-08-29T16:10:53.768Z,26.10
2022-08-29T16:15:58.745Z,26.26
2022-08-29T16:21:03.598Z,26.63
2022-08-29T16:26:11.457Z,26.87
2022-08-29T16:31:16.433Z,26.88
2022-08-29T16:36:21.106Z,26.61
2022-08-29T16:41:29.493Z,26.54
2022-08-29T16:46:35.160Z,26.27
2022-08-29T16:51:39.876Z,26.10
2022-08-29T16:56:47.361Z,26.09
2022-08-29T17:01:54.690Z,25.95
2022-08-29T17:07:01.306Z,25.63
2022-08-29T17:12:07.019Z,25.22
2022-08-29T17:17:11.814Z,25.06
2022-08-29T17:22:18.470Z,24.62
2022-08-29T17:27:29.987Z,24.36
2022-08-29T17:32:34.832Z,24.04
2022-08-29T17:37:39.827Z,23.88
2022-08-29T17:42:48.009Z,23.77
2022-08-29T17:47:52.543Z,23.53
2022-08-29T17:52:57.307Z,23.28
2022-08-29T17:58:06.004Z,22.94
2022-08-29T18:03:13.957Z,22.71
2022-08-29T18:08:19.272Z,22.39
2022-08-29T18:13:27.671Z,22.19
2022-08-29T18:18:34.581Z,21.92
2022-08-29T18:23:40.078Z,21.67
2022-08-29T18:28:48.085Z,21.42
2022-08-29T18:34:00.610Z,21.16
2022-08-29T18:39:19.111Z,20.76
2022-08-29T18:44:27.220Z,20.57
2022-08-29T18:49:44.336Z,20.38
2022-08-29T18:54:49.037Z,20.22
2022-08-29T18:59:56.774Z,19.88
2022-08-29T19:05:01.387Z,19.65
2022-08-29T19:10:07.134Z,19.53
2022-08-29T19:15:15.746Z,19.42
2022-08-29T19:20:36.418Z,19.34
2022-08-29T19:25:42.099Z,19.11
2022-08-29T19:30:50.772Z,19.02
2022-08-29T19:35:56.378Z,18.84
2022-08-29T19:41:04.381Z,18.74
2022-08-29T19:46:16.713Z,18.65
2022-08-29T19:51:29.812Z,18.57
2022-08-29T19:56:35.568Z,18.49
2022-08-29T20:01:45.738Z,18.37
2022-08-29T20:06:50.610Z,18.21
2022-08-29T20:11:55.857Z,18.14
2022-08-29T20:17:07.923Z,18.00
2022-08-29T20:22:14.336Z,17.92
2022-08-29T20:27:21.849Z,17.85
2022-08-29T20:32:29.182Z,17.76
2022-08-29T20:37:33.839Z,17.67
2022-08-29T20:42:38.473Z,17.62
2022-08-29T20:47:45.642Z,17.55
2022-08-29T20:52:51.359Z,17.49
2022-08-29T20:57:55.924Z,17.41
2022-08-29T21:03:15.794Z,17.35
2022-08-29T21:08:23.638Z,17.30
2022-08-29T21:13:29.397Z,17.23
2022-08-29T21:18:36.493Z,17.17
2022-08-29T21:23:41.237Z,17.08
2022-08-29T21:28:47.189Z,17.01
2022-08-29T21:33:55.102Z,16.97
2022-08-29T21:39:03.408Z,16.89
2022-08-29T21:44:08.560Z,16.83
2022-08-29T21:49:18.451Z,16.77
2022-08-29T21:54:23.058Z,16.71
2022-08-29T21:59:28.479Z,16.70
2022-08-29T22:04:35.702Z,16.63
2022-08-29T22:09:40.466Z,16.60
2022-08-29T22:15:03.766Z,16.53
2022-08-29T22:20:11.826Z,16.51
2022-08-29T22:25:16.930Z,16.47
2022-08-29T22:30:22.692Z,16.44
2022-08-29T22:35:40.536Z,16.40
2022-08-29T22:40:45.450Z,16.37
2022-08-29T22:45:50.734Z,16.36
2022-08-29T22:51:01.531Z,16.34
2022-08-29T22:56:06.716Z,16.30
2022-08-29T23:01:11.391Z,16.27
2022-08-29T23:06:18.781Z,16.19
2022-08-29T23:11:24.961Z,16.12
2022-08-29T23:16:29.590Z,16.08
2022-08-29T23:21:40.202Z,16.02
2022-08-29T23:26:45.538Z,15.99
2022-08-29T23:31:50.382Z,15.98
2022-08-29T23:36:57.798Z,15.97
2022-08-29T23:42:02.569Z,15.88
2022-08-29T23:47:08.605Z,15.76
2022-08-29T23:52:16.193Z,15.63
2022-08-29T23:57:21.106Z,15.53
